createdAt,value
2023-01-30T00:01:00.305Z,6.42
2023-01-30T00:03:27.844Z,6.33
2023-01-30T00:05:55.237Z,6.41
2023-01-30T00:08:22.920Z,6.44
2023-01-30T00:10:50.816Z,6.47
2023-01-30T00:13:18.418Z,6.51
2023-01-30T00:15:45.827Z,6.49
2023-01-30T00:18:13.320Z,6.47
2023-01-30T00:20:40.735Z,6.42
2023-01-30T00:23:08.169Z,6.50
2023-01-30T00:25:35.733Z,6.55
2023-01-30T00:28:03.363Z,6.51
2023-01-30T00:30:31.193Z,6.51
2023-01-30T00:32:59.334Z,6.44
2023-01-30T00:35:28.631Z,6.49
2023-01-30T00:37:59.979Z,6.63
2023-01-30T00:40:28.121Z,6.63
2023-01-30T00:43:13.476Z,6.62
2023-01-30T00:45:59.912Z,6.76
2023-01-30T00:48:27.541Z,6.72
2023-01-30T00:50:55.198Z,6.79
2023-01-30T00:53:22.645Z,6.83
2023-01-30T00:55:51.999Z,6.85
2023-01-30T00:58:19.860Z,6.81
2023-01-30T01:00:47.412Z,6.82
2023-01-30T01:03:14.964Z,6.83
2023-01-30T01:05:42.489Z,6.85
2023-01-30T01:08:10.042Z,6.91
2023-01-30T01:10:37.739Z,6.98
2023-01-30T01:13:06.460Z,7.07
2023-01-30T01:15:34.433Z,7.09
2023-01-30T01:18:01.823Z,7.16
2023-01-30T01:20:29.407Z,7.22
2023-01-30T01:22:57.607Z,7.26
2023-01-30T01:25:25.546Z,7.28
2023-01-30T01:27:52.926Z,7.26
2023-01-30T01:30:20.420Z,7.28
2023-01-30T01:32:48.025Z,7.19
2023-01-30T01:35:15.919Z,7.29
2023-01-30T01:37:43.572Z,7.23
2023-01-30T01:40:34.151Z,7.17
2023-01-30T01:43:01.616Z,7.20
2023-01-30T01:45:30.920Z,7.26
2023-01-30T01:48:05.251Z,7.27
2023-01-30T01:50:39.728Z,7.29
2023-01-30T01:53:07.548Z,7.36
2023-01-30T01:55:35.174Z,7.18
2023-01-30T01:58:06.712Z,7.20
2023-01-30T02:00:34.172Z,7.15
2023-01-30T02:03:04.219Z,7.12
2023-01-30T02:05:36.309Z,7.06
2023-01-30T02:08:08.862Z,7.03
2023-01-30T02:10:46.825Z,7.02
2023-01-30T02:13:14.362Z,6.99
2023-01-30T02:15:42.149Z,6.96
2023-01-30T02:18:09.850Z,6.96
2023-01-30T02:20:46.450Z,6.98
2023-01-30T02:23:25.810Z,6.93
2023-01-30T02:25:54.518Z,6.86
2023-01-30T02:28:29.076Z,6.79
2023-01-30T02:31:15.239Z,6.81
2023-01-30T02:33:42.684Z,6.84
2023-01-30T02:36:10.090Z,6.83
2023-01-30T02:38:42.504Z,6.78
2023-01-30T02:41:09.911Z,6.78
2023-01-30T02:43:45.528Z,6.76
2023-01-30T02:46:16.698Z,6.77
2023-01-30T02:48:50.205Z,6.80
2023-01-30T02:51:17.657Z,6.78
2023-01-30T02:53:46.687Z,6.81
2023-01-30T02:56:14.096Z,6.80
2023-01-30T02:58:50.378Z,6.80
2023-01-30T03:01:38.062Z,6.77
2023-01-30T03:04:08.256Z,6.80
2023-01-30T03:06:54.240Z,6.75
2023-01-30T03:09:26.655Z,6.75
2023-01-30T03:12:23.586Z,6.74
2023-01-30T03:14:51.147Z,6.73
2023-01-30T03:17:20.102Z,6.73
2023-01-30T03:19:47.747Z,6.78
2023-01-30T03:22:15.236Z,6.79
2023-01-30T03:24:43.197Z,6.78
2023-01-30T03:27:12.619Z,6.69
2023-01-30T03:29:40.484Z,6.84
2023-01-30T03:32:08.386Z,6.86
2023-01-30T03:34:35.775Z,6.90
2023-01-30T03:37:03.418Z,6.91
2023-01-30T03:39:30.895Z,6.93
2023-01-30T03:41:58.359Z,6.94
2023-01-30T03:44:25.820Z,7.01
2023-01-30T03:46:53.252Z,6.97
2023-01-30T03:49:20.739Z,7.03
2023-01-30T03:51:48.297Z,7.02
2023-01-30T03:54:15.706Z,7.06
2023-01-30T03:56:43.107Z,7.15
2023-01-30T03:59:10.624Z,7.16
2023-01-30T04:01:38.123Z,7.24
2023-01-30T04:04:05.640Z,7.21
2023-01-30T04:06:33.623Z,7.21
2023-01-30T04:09:02.100Z,7.23
2023-01-30T04:11:29.550Z,7.22
2023-01-30T04:13:56.949Z,7.29
2023-01-30T04:16:28.247Z,7.28
2023-01-30T04:18:55.706Z,7.40
2023-01-30T04:21:23.182Z,7.23
2023-01-30T04:23:50.678Z,7.28
2023-01-30T04:26:18.137Z,7.33
2023-01-30T04:28:45.596Z,7.24
2023-01-30T04:31:13.220Z,7.19
2023-01-30T04:33:40.872Z,7.18
2023-01-30T04:36:09.279Z,7.19
2023-01-30T04:38:37.120Z,7.19
2023-01-30T04:41:04.946Z,7.20
2023-01-30T04:43:32.789Z,7.17
2023-01-30T04:46:00.384Z,7.16
2023-01-30T04:48:28.039Z,7.06
2023-01-30T04:50:56.931Z,7.02
2023-01-30T04:53:24.988Z,7.00
2023-01-30T04:55:52.430Z,6.92
2023-01-30T04:58:20.407Z,6.92
2023-01-30T05:00:48.303Z,7.00
2023-01-30T05:03:16.351Z,7.01
2023-01-30T05:05:43.814Z,7.04
2023-01-30T05:08:11.204Z,7.05
2023-01-30T05:10:38.623Z,7.04
2023-01-30T05:13:06.458Z,7.08
2023-01-30T05:15:34.494Z,7.04
2023-01-30T05:18:02.083Z,7.08
2023-01-30T05:20:29.519Z,7.09
2023-01-30T05:22:56.963Z,7.08
2023-01-30T05:25:24.359Z,7.06
2023-01-30T05:27:51.791Z,7.00
2023-01-30T05:30:19.270Z,6.97
2023-01-30T05:32:46.698Z,7.00
2023-01-30T05:35:14.101Z,6.92
2023-01-30T05:37:41.984Z,6.93
2023-01-30T05:40:09.921Z,6.82
2023-01-30T05:42:37.364Z,6.74
2023-01-30T05:45:04.855Z,6.70
2023-01-30T05:47:32.244Z,6.54
2023-01-30T05:49:59.683Z,6.50
2023-01-30T05:52:27.235Z,6.42
2023-01-30T05:54:54.698Z,6.31
2023-01-30T05:57:22.087Z,6.31
2023-01-30T05:59:49.629Z,6.13
2023-01-30T06:02:17.072Z,6.23
2023-01-30T06:04:44.483Z,6.25
2023-01-30T06:07:11.958Z,6.17
2023-01-30T06:09:39.360Z,6.12
2023-01-30T06:12:07.994Z,6.03
2023-01-30T06:14:35.470Z,6.06
2023-01-30T06:17:02.872Z,6.04
2023-01-30T06:19:30.282Z,5.94
2023-01-30T06:21:57.817Z,5.96
2023-01-30T06:24:25.279Z,5.88
2023-01-30T06:26:52.804Z,5.88
2023-01-30T06:29:20.269Z,5.81
2023-01-30T06:31:48.513Z,5.76
2023-01-30T06:34:16.071Z,5.77
2023-01-30T06:36:44.112Z,5.69
2023-01-30T06:39:11.691Z,5.67
2023-01-30T06:41:39.198Z,5.60
2023-01-30T06:44:06.586Z,5.62
2023-01-30T06:46:34.032Z,5.60
2023-01-30T06:49:01.482Z,5.56
2023-01-30T06:51:29.001Z,5.54
2023-01-30T06:53:56.453Z,5.60
2023-01-30T06:56:23.861Z,5.55
2023-01-30T06:58:51.291Z,5.55
2023-01-30T07:01:21.254Z,5.53
2023-01-30T07:03:48.835Z,5.49
2023-01-30T07:06:16.338Z,5.54
2023-01-30T07:08:44.418Z,5.37
2023-01-30T07:11:12.302Z,5.58
2023-01-30T07:13:39.690Z,5.56
2023-01-30T07:16:07.379Z,5.55
2023-01-30T07:18:34.826Z,5.53
2023-01-30T07:21:02.422Z,5.48
2023-01-30T07:23:29.870Z,5.53
2023-01-30T07:25:57.359Z,5.53
2023-01-30T07:28:24.818Z,5.50
2023-01-30T07:30:52.918Z,5.47
2023-01-30T07:33:20.882Z,5.48
2023-01-30T07:35:48.384Z,5.45
2023-01-30T07:38:15.868Z,5.42
2023-01-30T07:40:43.294Z,5.45
2023-01-30T07:43:14.520Z,5.46
2023-01-30T07:45:43.243Z,5.48
2023-01-30T07:48:11.897Z,5.46
2023-01-30T07:50:39.667Z,5.48
2023-01-30T07:53:08.166Z,5.51
2023-01-30T07:55:35.754Z,5.53
2023-01-30T07:58:03.362Z,5.51
2023-01-30T08:00:31.151Z,5.59
2023-01-30T08:02:58.602Z,5.52
2023-01-30T08:05:26.130Z,5.51
2023-01-30T08:07:53.725Z,5.61
2023-01-30T08:10:21.523Z,5.67
2023-01-30T08:12:50.989Z,5.63
2023-01-30T08:15:18.626Z,5.73
2023-01-30T08:17:53.887Z,5.75
2023-01-30T08:20:21.585Z,5.76
2023-01-30T08:22:49.269Z,5.90
2023-01-30T08:25:16.925Z,6.01
2023-01-30T08:27:44.417Z,6.13
2023-01-30T08:30:13.067Z,6.01
2023-01-30T08:32:40.488Z,6.15
2023-01-30T08:35:08.212Z,6.23
2023-01-30T08:37:35.645Z,6.29
2023-01-30T08:40:03.207Z,6.32
2023-01-30T08:42:30.741Z,6.40
2023-01-30T08:44:58.273Z,6.43
2023-01-30T08:47:25.867Z,6.52
2023-01-30T08:49:53.599Z,6.55
2023-01-30T08:52:21.792Z,6.49
2023-01-30T08:54:52.433Z,6.59
2023-01-30T08:57:20.206Z,6.62
2023-01-30T08:59:47.710Z,6.55
2023-01-30T09:02:15.159Z,6.57
2023-01-30T09:04:42.645Z,6.52
2023-01-30T09:07:10.435Z,6.58
2023-01-30T09:09:37.883Z,6.51
2023-01-30T09:12:05.491Z,6.59
2023-01-30T09:14:32.906Z,6.57
2023-01-30T09:17:00.533Z,6.64
2023-01-30T09:19:29.288Z,6.63
2023-01-30T09:21:57.363Z,6.66
2023-01-30T09:24:26.447Z,6.49
2023-01-30T09:26:57.154Z,6.67
2023-01-30T09:29:25.446Z,6.71
2023-01-30T09:31:52.929Z,6.78
2023-01-30T09:34:20.608Z,6.82
2023-01-30T09:36:48.424Z,6.87
2023-01-30T09:39:16.044Z,6.90
2023-01-30T09:41:49.503Z,7.04
2023-01-30T09:44:35.600Z,7.03
2023-01-30T09:47:05.917Z,7.04
2023-01-30T09:49:42.293Z,7.08
2023-01-30T09:52:28.645Z,7.14
2023-01-30T09:55:04.622Z,7.06
2023-01-30T09:57:32.164Z,7.09
2023-01-30T10:00:12.264Z,7.14
2023-01-30T10:02:40.525Z,6.95
2023-01-30T10:05:08.431Z,7.02
2023-01-30T10:07:35.945Z,7.05
2023-01-30T10:10:10.362Z,7.05
2023-01-30T10:12:40.886Z,7.07
2023-01-30T10:15:16.853Z,7.23
2023-01-30T10:17:44.282Z,7.32
2023-01-30T10:20:14.861Z,7.30
2023-01-30T10:23:02.671Z,7.29
2023-01-30T10:25:35.242Z,7.44
2023-01-30T10:28:07.289Z,7.41
2023-01-30T10:30:35.274Z,7.51
2023-01-30T10:33:21.476Z,7.52
2023-01-30T10:35:53.396Z,7.53
2023-01-30T10:38:20.866Z,7.58
2023-01-30T10:40:53.357Z,7.54
2023-01-30T10:43:20.862Z,7.51
2023-01-30T10:46:07.001Z,7.46
2023-01-30T10:48:52.818Z,7.29
2023-01-30T10:51:26.163Z,7.30
2023-01-30T10:53:59.709Z,7.43
2023-01-30T10:56:34.819Z,7.35
2023-01-30T10:59:17.031Z,7.50
2023-01-30T11:01:52.619Z,7.53
2023-01-30T11:04:30.477Z,7.56
2023-01-30T11:06:59.013Z,7.51
2023-01-30T11:09:38.857Z,7.49
2023-01-30T11:12:06.419Z,7.68
2023-01-30T11:14:50.517Z,7.90
2023-01-30T11:17:19.220Z,8.08
2023-01-30T11:19:46.881Z,8.11
2023-01-30T11:22:15.554Z,7.99
2023-01-30T11:24:44.791Z,8.20
2023-01-30T11:27:17.851Z,8.40
2023-01-30T11:29:45.572Z,8.63
2023-01-30T11:32:20.786Z,8.74
2023-01-30T11:35:02.555Z,8.60
2023-01-30T11:37:34.274Z,8.84
2023-01-30T11:40:08.878Z,8.78
2023-01-30T11:42:36.275Z,8.70
2023-01-30T11:45:16.575Z,8.52
2023-01-30T11:47:57.255Z,8.73
2023-01-30T11:50:31.694Z,8.78
2023-01-30T11:53:04.051Z,8.66
2023-01-30T11:55:35.703Z,8.39
2023-01-30T11:58:05.148Z,8.57
2023-01-30T12:00:42.844Z,8.51
2023-01-30T12:03:12.739Z,8.77
2023-01-30T12:05:42.540Z,8.90
2023-01-30T12:08:39.318Z,9.13
2023-01-30T12:11:24.675Z,8.96
2023-01-30T12:13:52.960Z,9.06
2023-01-30T12:16:35.240Z,8.90
2023-01-30T12:19:06.750Z,8.85
2023-01-30T12:21:43.288Z,8.93
2023-01-30T12:24:21.700Z,8.91
2023-01-30T12:26:53.103Z,8.88
2023-01-30T12:29:24.158Z,9.04
2023-01-30T12:31:58.710Z,8.99
2023-01-30T12:34:27.604Z,9.06
2023-01-30T12:37:05.963Z,9.06
2023-01-30T12:39:48.226Z,9.11
2023-01-30T12:42:15.718Z,9.20
2023-01-30T12:44:43.137Z,9.21
2023-01-30T12:47:26.997Z,9.43
2023-01-30T12:50:02.417Z,9.12
2023-01-30T12:52:48.725Z,8.89
2023-01-30T12:55:34.840Z,8.96
2023-01-30T12:58:06.719Z,8.85
2023-01-30T13:00:51.440Z,8.52
2023-01-30T13:03:41.556Z,8.36
2023-01-30T13:06:16.092Z,8.20
2023-01-30T13:08:46.354Z,8.29
2023-01-30T13:11:32.341Z,8.24
2023-01-30T13:14:08.886Z,8.10
2023-01-30T13:16:39.257Z,8.04
2023-01-30T13:19:40.459Z,8.03
2023-01-30T13:22:23.756Z,8.14
2023-01-30T13:24:51.155Z,8.00
2023-01-30T13:27:20.786Z,8.05
2023-01-30T13:29:49.301Z,7.84
2023-01-30T13:32:31.069Z,7.87
2023-01-30T13:35:00.617Z,7.92
2023-01-30T13:37:28.594Z,7.91
2023-01-30T13:40:17.788Z,7.85
2023-01-30T13:42:50.929Z,7.92
2023-01-30T13:45:21.391Z,7.89
2023-01-30T13:47:51.606Z,7.94
2023-01-30T13:50:45.255Z,7.82
2023-01-30T13:53:15.572Z,7.92
2023-01-30T13:55:48.407Z,8.16
2023-01-30T13:58:30.223Z,8.13
2023-01-30T14:00:58.092Z,7.84
2023-01-30T14:03:30.547Z,8.02
2023-01-30T14:05:59.188Z,8.17
2023-01-30T14:08:28.566Z,8.16
2023-01-30T14:10:57.353Z,8.18
2023-01-30T14:13:25.985Z,8.18
2023-01-30T14:16:04.161Z,8.23
2023-01-30T14:18:33.990Z,7.91
2023-01-30T14:21:15.027Z,7.95
2023-01-30T14:23:43.041Z,7.99
2023-01-30T14:26:10.572Z,7.95
2023-01-30T14:28:38.047Z,7.93
2023-01-30T14:31:05.588Z,7.90
2023-01-30T14:33:36.765Z,7.86
2023-01-30T14:36:04.329Z,7.85
2023-01-30T14:38:38.885Z,7.87
2023-01-30T14:41:06.785Z,7.90
2023-01-30T14:43:37.309Z,7.96
2023-01-30T14:46:13.544Z,7.81
2023-01-30T14:49:05.392Z,7.78
2023-01-30T14:51:35.865Z,7.79
2023-01-30T14:54:03.330Z,7.75
2023-01-30T14:56:39.953Z,7.78
2023-01-30T14:59:27.684Z,7.71
2023-01-30T15:02:04.414Z,7.71
2023-01-30T15:04:33.989Z,7.67
2023-01-30T15:07:05.388Z,7.62
2023-01-30T15:09:33.233Z,7.65
2023-01-30T15:12:07.042Z,7.64
2023-01-30T15:14:39.642Z,7.65
2023-01-30T15:17:30.377Z,7.61
2023-01-30T15:20:12.934Z,7.64
2023-01-30T15:23:04.135Z,7.67
2023-01-30T15:25:41.301Z,7.73
2023-01-30T15:28:08.724Z,7.80
2023-01-30T15:30:45.050Z,7.84
2023-01-30T15:33:22.920Z,7.86
2023-01-30T15:35:57.078Z,7.78
2023-01-30T15:38:29.250Z,7.70
2023-01-30T15:40:59.070Z,7.72
2023-01-30T15:43:45.333Z,7.79
2023-01-30T15:46:31.672Z,7.83
2023-01-30T15:48:59.061Z,7.83
2023-01-30T15:51:30.386Z,7.66
2023-01-30T15:53:59.263Z,7.65
2023-01-30T15:56:32.060Z,7.66
2023-01-30T15:59:03.403Z,7.50
2023-01-30T16:01:35.077Z,7.45
2023-01-30T16:04:10.192Z,7.39
2023-01-30T16:06:41.517Z,7.38
2023-01-30T16:09:21.977Z,7.31
2023-01-30T16:11:50.408Z,7.12
2023-01-30T16:14:22.074Z,6.82
2023-01-30T16:17:08.065Z,6.63
2023-01-30T16:19:37.406Z,6.58
2023-01-30T16:22:06.342Z,6.50
2023-01-30T16:24:35.538Z,6.38
2023-01-30T16:27:05.754Z,6.24
2023-01-30T16:29:34.415Z,6.22
2023-01-30T16:32:02.045Z,6.15
2023-01-30T16:34:32.372Z,6.02
2023-01-30T16:37:05.584Z,5.96
2023-01-30T16:39:34.247Z,5.87
2023-01-30T16:42:02.563Z,5.89
2023-01-30T16:44:30.854Z,5.86
2023-01-30T16:47:03.412Z,5.86
2023-01-30T16:49:30.935Z,5.86
2023-01-30T16:52:18.004Z,5.82
2023-01-30T16:54:47.614Z,5.79
2023-01-30T16:57:23.485Z,5.72
2023-01-30T16:59:51.291Z,5.72
2023-01-30T17:02:44.825Z,5.79
2023-01-30T17:05:20.465Z,5.81
2023-01-30T17:07:48.037Z,5.80
2023-01-30T17:10:32.215Z,5.82
2023-01-30T17:12:59.708Z,5.75
2023-01-30T17:15:27.799Z,5.72
2023-01-30T17:17:55.283Z,5.62
2023-01-30T17:20:22.915Z,5.59
2023-01-30T17:22:52.974Z,5.53
2023-01-30T17:25:55.933Z,5.42
2023-01-30T17:28:24.305Z,5.33
2023-01-30T17:30:52.281Z,5.27
2023-01-30T17:33:20.112Z,5.22
2023-01-30T17:35:47.679Z,5.26
2023-01-30T17:38:15.450Z,5.26
2023-01-30T17:40:43.416Z,5.29
2023-01-30T17:43:13.295Z,5.27
2023-01-30T17:45:40.941Z,5.28
2023-01-30T17:48:08.583Z,5.27
2023-01-30T17:50:36.596Z,5.21
2023-01-30T17:53:04.424Z,5.14
2023-01-30T17:55:32.079Z,5.10
2023-01-30T17:57:59.529Z,5.11
2023-01-30T18:00:27.077Z,5.01
2023-01-30T18:02:54.522Z,5.04
2023-01-30T18:05:23.058Z,5.02
2023-01-30T18:07:50.897Z,4.98
2023-01-30T18:10:20.668Z,4.99
2023-01-30T18:12:48.278Z,5.03
2023-01-30T18:15:16.352Z,5.07
2023-01-30T18:17:47.131Z,5.04
2023-01-30T18:20:16.060Z,5.07
2023-01-30T18:22:43.926Z,5.02
2023-01-30T18:25:13.562Z,4.97
2023-01-30T18:27:44.054Z,4.93
2023-01-30T18:30:17.454Z,4.86
2023-01-30T18:32:52.943Z,4.76
2023-01-30T18:35:22.214Z,4.70
2023-01-30T18:37:50.306Z,4.60
2023-01-30T18:40:18.763Z,4.53
2023-01-30T18:42:47.256Z,4.47
2023-01-30T18:45:15.133Z,4.47
2023-01-30T18:47:42.879Z,4.49
2023-01-30T18:50:10.762Z,4.48
2023-01-30T18:52:38.728Z,4.57
2023-01-30T18:55:06.809Z,4.54
2023-01-30T18:57:34.660Z,4.53
2023-01-30T19:00:02.433Z,4.56
2023-01-30T19:02:30.215Z,4.51
2023-01-30T19:04:58.082Z,4.47
2023-01-30T19:07:26.031Z,4.38
2023-01-30T19:09:54.109Z,4.26
2023-01-30T19:12:40.414Z,4.34
2023-01-30T19:15:10.009Z,4.50
2023-01-30T19:17:37.888Z,4.57
2023-01-30T19:20:10.791Z,4.61
2023-01-30T19:22:38.835Z,4.55
2023-01-30T19:25:07.007Z,4.51
2023-01-30T19:27:37.541Z,4.42
2023-01-30T19:30:05.819Z,4.39
2023-01-30T19:32:33.804Z,4.35
2023-01-30T19:35:01.765Z,4.31
2023-01-30T19:37:29.723Z,4.30
2023-01-30T19:39:57.513Z,4.31
2023-01-30T19:42:25.569Z,4.39
2023-01-30T19:44:53.638Z,4.41
2023-01-30T19:47:23.055Z,4.44
2023-01-30T19:49:50.906Z,4.40
2023-01-30T19:52:18.879Z,4.36
2023-01-30T19:54:47.893Z,4.36
2023-01-30T19:57:15.658Z,4.37
2023-01-30T19:59:44.940Z,4.34
2023-01-30T20:02:13.645Z,4.35
2023-01-30T20:04:41.071Z,4.42
2023-01-30T20:07:08.485Z,4.35
2023-01-30T20:09:35.903Z,4.42
2023-01-30T20:12:03.616Z,4.43
2023-01-30T20:14:31.211Z,4.32
2023-01-30T20:16:58.634Z,4.38
2023-01-30T20:19:26.244Z,4.24
2023-01-30T20:21:54.986Z,4.35
2023-01-30T20:24:22.505Z,4.25
2023-01-30T20:26:49.934Z,4.24
2023-01-30T20:29:18.060Z,4.11
2023-01-30T20:31:45.759Z,4.12
2023-01-30T20:34:13.982Z,4.13
2023-01-30T20:36:41.713Z,4.11
2023-01-30T20:39:09.182Z,4.16
2023-01-30T20:41:37.626Z,4.16
2023-01-30T20:44:06.477Z,4.15
2023-01-30T20:46:41.335Z,4.24
2023-01-30T20:49:12.513Z,4.29
2023-01-30T20:51:39.933Z,4.37
2023-01-30T20:54:08.580Z,4.39
2023-01-30T20:56:41.653Z,4.49
2023-01-30T20:59:10.263Z,4.37
2023-01-30T21:01:37.834Z,4.32
2023-01-30T21:04:06.920Z,4.26
2023-01-30T21:06:37.134Z,4.28
2023-01-30T21:09:22.438Z,4.25
2023-01-30T21:11:51.214Z,4.20
2023-01-30T21:14:18.616Z,4.21
2023-01-30T21:16:46.431Z,4.18
2023-01-30T21:19:17.341Z,4.19
2023-01-30T21:21:50.442Z,4.23
2023-01-30T21:24:19.584Z,4.23
2023-01-30T21:26:47.809Z,4.31
2023-01-30T21:29:16.874Z,4.41
2023-01-30T21:31:45.401Z,4.44
2023-01-30T21:34:13.281Z,4.39
2023-01-30T21:36:40.795Z,4.48
2023-01-30T21:39:25.767Z,4.41
2023-01-30T21:42:22.212Z,4.53
2023-01-30T21:44:49.619Z,4.60
2023-01-30T21:47:17.105Z,4.51
2023-01-30T21:49:45.595Z,4.52
2023-01-30T21:52:12.998Z,4.50
2023-01-30T21:54:40.481Z,4.36
2023-01-30T21:57:07.873Z,4.37
2023-01-30T21:59:35.325Z,4.00
2023-01-30T22:02:02.799Z,4.14
2023-01-30T22:04:30.264Z,4.13
2023-01-30T22:06:57.697Z,4.08
2023-01-30T22:09:25.131Z,3.88
2023-01-30T22:11:52.546Z,4.11
2023-01-30T22:14:20.063Z,4.12
2023-01-30T22:16:47.502Z,4.06
2023-01-30T22:19:15.311Z,4.10
2023-01-30T22:21:42.767Z,4.03
2023-01-30T22:24:11.643Z,4.02
2023-01-30T22:26:39.696Z,4.03
2023-01-30T22:29:07.445Z,4.03
2023-01-30T22:31:36.334Z,4.00
2023-01-30T22:34:04.920Z,4.02
2023-01-30T22:36:33.510Z,3.99
2023-01-30T22:39:00.959Z,4.05
2023-01-30T22:41:29.366Z,4.00
2023-01-30T22:43:57.623Z,3.97
2023-01-30T22:46:31.318Z,3.98
2023-01-30T22:48:59.600Z,3.94
2023-01-30T22:51:28.597Z,3.87
2023-01-30T22:53:57.204Z,3.73
2023-01-30T22:56:26.052Z,3.76
2023-01-30T22:58:53.573Z,3.79
2023-01-30T23:01:28.454Z,3.70
2023-01-30T23:03:56.930Z,3.76
2023-01-30T23:06:24.789Z,3.73
2023-01-30T23:08:52.825Z,3.67
2023-01-30T23:11:22.057Z,3.67
2023-01-30T23:13:50.643Z,3.64
2023-01-30T23:16:19.354Z,3.63
2023-01-30T23:18:58.869Z,3.58
2023-01-30T23:21:31.748Z,3.51
2023-01-30T23:24:02.716Z,3.51
2023-01-30T23:26:32.143Z,3.59
2023-01-30T23:28:59.737Z,3.57
2023-01-30T23:31:27.639Z,3.60
2023-01-30T23:33:56.352Z,3.56
2023-01-30T23:36:24.160Z,3.52
2023-01-30T23:38:52.535Z,3.58
2023-01-30T23:41:21.481Z,3.66
2023-01-30T23:43:49.726Z,3.58
2023-01-30T23:46:20.088Z,3.62
2023-01-30T23:48:48.467Z,3.64
2023-01-30T23:51:17.231Z,3.60
2023-01-30T23:53:45.108Z,3.60
2023-01-30T23:56:13.319Z,3.73
2023-01-30T23:58:41.384Z,3.67
